createdAt,value
2023-05-04T00:01:18.372Z,101934.09
2023-05-04T00:03:46.381Z,101928.19
2023-05-04T00:06:14.231Z,101927.34
2023-05-04T00:08:41.854Z,101925.81
2023-05-04T00:11:09.458Z,101927.84
2023-05-04T00:13:37.093Z,101925.63
2023-05-04T00:16:07.937Z,101930.88
2023-05-04T00:18:36.765Z,101932.59
2023-05-04T00:21:04.491Z,101935.13
2023-05-04T00:23:32.075Z,101928.03
2023-05-04T00:26:00.063Z,101929.19
2023-05-04T00:28:27.851Z,101927.31
2023-05-04T00:30:55.713Z,101931.22
2023-05-04T00:33:24.631Z,101930.19
2023-05-04T00:35:52.262Z,101922.56
2023-05-04T00:38:20.028Z,101912.44
2023-05-04T00:40:47.636Z,101915.13
2023-05-04T00:43:15.226Z,101918.34
2023-05-04T00:45:43.302Z,101912.91
2023-05-04T00:48:11.671Z,101906.50
2023-05-04T00:50:41.541Z,101904.63
2023-05-04T00:53:11.678Z,101909.84
2023-05-04T00:55:40.755Z,101904.13
2023-05-04T00:58:09.526Z,101896.84
2023-05-04T01:00:38.606Z,101898.88
2023-05-04T01:03:06.509Z,101899.03
2023-05-04T01:05:39.338Z,101897.66
2023-05-04T01:08:13.808Z,101889.16
2023-05-04T01:10:48.063Z,101892.53
2023-05-04T01:13:17.275Z,101893.38
2023-05-04T01:15:45.459Z,101891.84
2023-05-04T01:18:13.276Z,101893.91
2023-05-04T01:20:40.956Z,101897.63
2023-05-04T01:23:10.702Z,101887.97
2023-05-04T01:25:46.335Z,101888.78
2023-05-04T01:28:19.950Z,101887.44
2023-05-04T01:30:52.296Z,101887.44
2023-05-04T01:33:20.594Z,101891.16
2023-05-04T01:35:49.293Z,101893.84
2023-05-04T01:38:18.672Z,101888.31
2023-05-04T01:40:46.299Z,101886.44
2023-05-04T01:43:14.021Z,101888.97
2023-05-04T01:45:41.926Z,101888.31
2023-05-04T01:48:09.520Z,101892.13
2023-05-04T01:50:37.150Z,101900.56
2023-05-04T01:53:04.714Z,101888.06
2023-05-04T01:55:33.626Z,101890.47
2023-05-04T01:58:01.188Z,101887.13
2023-05-04T02:00:28.864Z,101891.03
2023-05-04T02:02:56.575Z,101894.09
2023-05-04T02:05:24.153Z,101890.75
2023-05-04T02:07:51.963Z,101890.41
2023-05-04T02:10:19.681Z,101896.81
2023-05-04T02:12:48.655Z,101891.38
2023-05-04T02:15:16.270Z,101895.44
2023-05-04T02:17:44.004Z,101891.03
2023-05-04T02:20:13.115Z,101892.53
2023-05-04T02:22:40.863Z,101885.94
2023-05-04T02:25:09.248Z,101893.56
2023-05-04T02:27:36.861Z,101890.00
2023-05-04T02:30:07.329Z,101894.22
2023-05-04T02:32:35.160Z,101886.19
2023-05-04T02:35:02.896Z,101886.91
2023-05-04T02:37:30.572Z,101898.34
2023-05-04T02:39:58.138Z,101897.88
2023-05-04T02:42:25.855Z,101899.72
2023-05-04T02:44:53.568Z,101898.66
2023-05-04T02:47:22.690Z,101897.97
2023-05-04T02:49:50.839Z,101900.50
2023-05-04T02:52:18.522Z,101895.09
2023-05-04T02:54:47.111Z,101893.25
2023-05-04T02:57:14.729Z,101890.19
2023-05-04T02:59:42.308Z,101884.63
2023-05-04T03:02:09.954Z,101884.28
2023-05-04T03:04:39.118Z,101883.97
2023-05-04T03:07:06.716Z,101876.78
2023-05-04T03:09:34.368Z,101880.66
2023-05-04T03:12:02.706Z,101874.69
2023-05-04T03:14:31.323Z,101883.03
2023-05-04T03:16:59.372Z,101874.03
2023-05-04T03:19:27.160Z,101873.53
2023-05-04T03:21:56.035Z,101873.72
2023-05-04T03:24:23.604Z,101871.63
2023-05-04T03:26:51.218Z,101880.31
2023-05-04T03:29:18.730Z,101871.31
2023-05-04T03:31:47.114Z,101875.84
2023-05-04T03:34:14.860Z,101872.66
2023-05-04T03:36:42.488Z,101873.22
2023-05-04T03:39:11.380Z,101866.50
2023-05-04T03:41:38.959Z,101858.56
2023-05-04T03:44:06.796Z,101864.06
2023-05-04T03:46:34.442Z,101859.88
2023-05-04T03:49:02.076Z,101860.06
2023-05-04T03:51:29.762Z,101864.69
2023-05-04T03:53:57.398Z,101855.19
2023-05-04T03:56:26.280Z,101846.72
2023-05-04T03:58:53.847Z,101849.81
2023-05-04T04:01:21.475Z,101845.50
2023-05-04T04:03:49.425Z,101848.34
2023-05-04T04:06:17.333Z,101844.91
2023-05-04T04:08:44.917Z,101842.81
2023-05-04T04:11:12.565Z,101848.72
2023-05-04T04:13:41.593Z,101840.78
2023-05-04T04:16:09.200Z,101842.75
2023-05-04T04:18:36.747Z,101844.84
2023-05-04T04:21:04.491Z,101845.25
2023-05-04T04:23:32.057Z,101838.81
2023-05-04T04:25:59.627Z,101836.66
2023-05-04T04:28:27.229Z,101831.06
2023-05-04T04:30:56.227Z,101827.25
2023-05-04T04:33:23.977Z,101825.50
2023-05-04T04:35:53.009Z,101828.03
2023-05-04T04:38:21.218Z,101832.56
2023-05-04T04:40:48.818Z,101822.72
2023-05-04T04:43:16.400Z,101827.78
2023-05-04T04:45:45.224Z,101834.91
2023-05-04T04:48:14.545Z,101826.94
2023-05-04T04:50:42.209Z,101829.59
2023-05-04T04:53:09.827Z,101831.75
2023-05-04T04:55:37.465Z,101832.75
2023-05-04T04:58:05.106Z,101824.97
2023-05-04T05:00:32.778Z,101835.22
2023-05-04T05:03:00.409Z,101833.69
2023-05-04T05:05:31.604Z,101831.84
2023-05-04T05:07:59.542Z,101828.16
2023-05-04T05:10:27.271Z,101831.13
2023-05-04T05:12:54.952Z,101830.19
2023-05-04T05:15:22.674Z,101826.44
2023-05-04T05:17:50.295Z,101829.91
2023-05-04T05:20:18.008Z,101825.44
2023-05-04T05:22:46.962Z,101823.03
2023-05-04T05:25:14.615Z,101821.59
2023-05-04T05:27:42.632Z,101828.03
2023-05-04T05:30:11.297Z,101824.91
2023-05-04T05:32:39.226Z,101813.00
2023-05-04T05:35:07.940Z,101820.16
2023-05-04T05:37:36.624Z,101828.97
2023-05-04T05:40:08.469Z,101823.63
2023-05-04T05:42:36.578Z,101823.13
2023-05-04T05:45:04.564Z,101817.91
2023-05-04T05:47:32.445Z,101821.69
2023-05-04T05:50:00.055Z,101824.16
2023-05-04T05:52:28.698Z,101825.16
2023-05-04T05:54:56.313Z,101824.06
2023-05-04T05:57:25.339Z,101835.97
2023-05-04T05:59:53.010Z,101824.59
2023-05-04T06:02:20.678Z,101828.41
2023-05-04T06:04:48.534Z,101829.47
2023-05-04T06:07:16.775Z,101827.72
2023-05-04T06:09:44.750Z,101833.69
2023-05-04T06:12:14.917Z,101824.75
2023-05-04T06:14:44.004Z,101824.28
2023-05-04T06:17:11.602Z,101823.97
2023-05-04T06:19:39.360Z,101817.19
2023-05-04T06:22:07.011Z,101811.50
2023-05-04T06:24:34.694Z,101817.56
2023-05-04T06:27:03.448Z,101818.44
2023-05-04T06:29:31.240Z,101819.09
2023-05-04T06:32:00.263Z,101820.16
2023-05-04T06:34:27.892Z,101815.47
2023-05-04T06:36:55.788Z,101825.59
2023-05-04T06:39:23.520Z,101819.47
2023-05-04T06:41:55.332Z,101818.81
2023-05-04T06:44:23.363Z,101824.03
2023-05-04T06:46:52.162Z,101813.72
2023-05-04T06:49:21.244Z,101814.22
2023-05-04T06:51:48.885Z,101814.41
2023-05-04T06:54:16.555Z,101812.72
2023-05-04T06:56:44.198Z,101819.47
2023-05-04T06:59:11.943Z,101815.09
2023-05-04T07:01:41.479Z,101814.78
2023-05-04T07:04:09.658Z,101817.28
2023-05-04T07:06:39.376Z,101817.78
2023-05-04T07:09:08.275Z,101822.84
2023-05-04T07:11:36.019Z,101822.34
2023-05-04T07:14:07.874Z,101817.59
2023-05-04T07:16:36.827Z,101821.81
2023-05-04T07:19:05.017Z,101817.06
2023-05-04T07:21:32.882Z,101825.56
2023-05-04T07:24:01.976Z,101813.69
2023-05-04T07:26:29.782Z,101815.75
2023-05-04T07:28:57.374Z,101803.19
2023-05-04T07:31:25.125Z,101811.97
2023-05-04T07:33:52.903Z,101805.69
2023-05-04T07:36:20.571Z,101805.97
2023-05-04T07:38:48.494Z,101800.34
2023-05-04T07:41:17.381Z,101796.72
2023-05-04T07:43:44.951Z,101797.47
2023-05-04T07:46:12.750Z,101803.88
2023-05-04T07:48:40.436Z,101796.22
2023-05-04T07:51:13.592Z,101790.94
2023-05-04T07:53:42.378Z,101790.44
2023-05-04T07:56:11.475Z,101797.72
2023-05-04T07:58:41.230Z,101799.41
2023-05-04T08:01:08.907Z,101792.22
2023-05-04T08:03:36.824Z,101783.19
2023-05-04T08:06:04.674Z,101785.28
2023-05-04T08:08:32.452Z,101786.81
2023-05-04T08:11:11.749Z,101784.09
2023-05-04T08:13:48.612Z,101783.91
2023-05-04T08:16:16.254Z,101783.38
2023-05-04T08:18:44.205Z,101786.53
2023-05-04T08:21:11.865Z,101775.94
2023-05-04T08:23:39.468Z,101769.72
2023-05-04T08:26:07.069Z,101763.19
2023-05-04T08:28:36.641Z,101760.75
2023-05-04T08:31:06.463Z,101763.22
2023-05-04T08:33:34.393Z,101764.44
2023-05-04T08:36:02.316Z,101754.03
2023-05-04T08:38:29.969Z,101754.41
2023-05-04T08:40:57.983Z,101752.84
2023-05-04T08:43:25.591Z,101747.66
2023-05-04T08:45:53.705Z,101744.28
2023-05-04T08:48:23.141Z,101745.13
2023-05-04T08:50:51.203Z,101742.56
2023-05-04T08:53:20.017Z,101744.28
2023-05-04T08:55:49.532Z,101745.22
2023-05-04T08:58:19.679Z,101728.78
2023-05-04T09:00:49.835Z,101726.56
2023-05-04T09:03:18.908Z,101722.69
2023-05-04T09:05:50.627Z,101730.38
2023-05-04T09:08:20.414Z,101720.34
2023-05-04T09:10:48.139Z,101725.75
2023-05-04T09:13:16.143Z,101717.75
2023-05-04T09:15:43.750Z,101718.09
2023-05-04T09:18:11.838Z,101717.22
2023-05-04T09:20:47.002Z,101722.09
2023-05-04T09:23:17.929Z,101715.16
2023-05-04T09:25:50.196Z,101721.28
2023-05-04T09:28:19.062Z,101711.25
2023-05-04T09:30:48.282Z,101709.31
2023-05-04T09:33:16.943Z,101699.34
2023-05-04T09:35:45.292Z,101702.13
2023-05-04T09:38:12.896Z,101707.56
2023-05-04T09:40:43.242Z,101708.84
2023-05-04T09:43:13.293Z,101704.53
2023-05-04T09:45:41.694Z,101697.44
2023-05-04T09:48:20.818Z,101700.78
2023-05-04T09:50:50.372Z,101697.63
2023-05-04T09:53:21.716Z,101683.44
2023-05-04T09:55:59.449Z,101680.34
2023-05-04T09:58:31.060Z,101684.78
2023-05-04T10:01:01.535Z,101676.69
2023-05-04T10:03:29.963Z,101673.13
2023-05-04T10:05:59.421Z,101670.44
2023-05-04T10:08:28.377Z,101671.91
2023-05-04T10:10:58.224Z,101662.06
2023-05-04T10:13:26.697Z,101669.25
2023-05-04T10:16:18.219Z,101662.78
2023-05-04T10:19:02.850Z,101655.88
2023-05-04T10:21:40.128Z,101659.06
2023-05-04T10:24:30.871Z,101653.41
2023-05-04T10:27:09.788Z,101649.81
2023-05-04T10:29:38.199Z,101654.66
2023-05-04T10:32:07.804Z,101647.97
2023-05-04T10:34:36.827Z,101645.66
2023-05-04T10:37:04.556Z,101646.50
2023-05-04T10:39:33.076Z,101642.34
2023-05-04T10:42:03.467Z,101635.00
2023-05-04T10:44:33.992Z,101646.34
2023-05-04T10:47:04.170Z,101634.75
2023-05-04T10:49:32.794Z,101631.81
2023-05-04T10:52:10.664Z,101631.66
2023-05-04T10:54:39.365Z,101620.72
2023-05-04T10:57:09.101Z,101623.03
2023-05-04T10:59:39.279Z,101616.53
2023-05-04T11:02:07.755Z,101614.41
2023-05-04T11:04:36.354Z,101603.13
2023-05-04T11:07:06.045Z,101595.56
2023-05-04T11:09:37.823Z,101595.34
2023-05-04T11:12:06.179Z,101594.72
2023-05-04T11:14:37.513Z,101593.25
2023-05-04T11:17:26.756Z,101586.50
2023-05-04T11:19:56.020Z,101578.31
2023-05-04T11:22:23.781Z,101584.63
2023-05-04T11:24:51.348Z,101583.34
2023-05-04T11:27:23.404Z,101569.25
2023-05-04T11:29:55.595Z,101573.66
2023-05-04T11:32:34.889Z,101565.84
2023-05-04T11:35:04.095Z,101555.50
2023-05-04T11:37:38.261Z,101551.47
2023-05-04T11:40:10.712Z,101547.84
2023-05-04T11:42:39.833Z,101541.06
2023-05-04T11:45:11.648Z,101538.94
2023-05-04T11:47:41.553Z,101541.31
2023-05-04T11:50:12.331Z,101532.03
2023-05-04T11:52:41.932Z,101530.06
2023-05-04T11:55:13.068Z,101536.38
2023-05-04T11:57:41.159Z,101525.34
2023-05-04T12:00:10.460Z,101524.06
2023-05-04T12:02:38.108Z,101519.19
2023-05-04T12:05:13.595Z,101520.41
2023-05-04T12:07:41.325Z,101512.00
2023-05-04T12:10:09.655Z,101513.25
2023-05-04T12:12:37.539Z,101503.19
2023-05-04T12:15:05.779Z,101509.06
2023-05-04T12:17:44.863Z,101509.22
2023-05-04T12:20:23.665Z,101503.88
2023-05-04T12:22:51.292Z,101506.63
2023-05-04T12:25:19.610Z,101507.69
2023-05-04T12:27:47.159Z,101499.22
2023-05-04T12:30:15.826Z,101499.53
2023-05-04T12:32:45.165Z,101496.34
2023-05-04T12:35:14.107Z,101499.47
2023-05-04T12:37:42.101Z,101486.66
2023-05-04T12:40:25.185Z,101484.16
2023-05-04T12:42:57.226Z,101478.44
2023-05-04T12:45:24.963Z,101490.84
2023-05-04T12:47:52.679Z,101489.28
2023-05-04T12:50:21.909Z,101492.25
2023-05-04T12:52:50.690Z,101491.22
2023-05-04T12:55:18.440Z,101486.31
2023-05-04T12:57:47.351Z,101473.88
2023-05-04T13:00:16.089Z,101478.28
2023-05-04T13:02:44.239Z,101478.44
2023-05-04T13:05:13.010Z,101475.25
2023-05-04T13:07:41.976Z,101468.78
2023-05-04T13:10:10.369Z,101471.53
2023-05-04T13:12:38.814Z,101469.00
2023-05-04T13:15:07.586Z,101472.66
2023-05-04T13:17:35.583Z,101476.69
2023-05-04T13:20:05.977Z,101464.72
2023-05-04T13:22:33.806Z,101458.47
2023-05-04T13:25:02.796Z,101460.53
2023-05-04T13:27:30.675Z,101446.38
2023-05-04T13:29:58.473Z,101443.53
2023-05-04T13:32:27.388Z,101439.59
2023-05-04T13:34:55.435Z,101427.88
2023-05-04T13:37:23.340Z,101424.91
2023-05-04T13:39:51.015Z,101420.59
2023-05-04T13:42:20.057Z,101423.97
2023-05-04T13:44:48.319Z,101411.78
2023-05-04T13:47:17.607Z,101412.72
2023-05-04T13:49:45.382Z,101415.84
2023-05-04T13:52:13.419Z,101412.72
2023-05-04T13:54:41.331Z,101407.47
2023-05-04T13:57:09.064Z,101401.56
2023-05-04T13:59:37.949Z,101385.28
2023-05-04T14:02:07.013Z,101381.72
2023-05-04T14:04:35.743Z,101385.50
2023-05-04T14:07:05.157Z,101378.81
2023-05-04T14:09:32.751Z,101377.03
2023-05-04T14:12:00.535Z,101374.06
2023-05-04T14:14:28.144Z,101365.09
2023-05-04T14:16:57.298Z,101357.25
2023-05-04T14:19:26.268Z,101354.09
2023-05-04T14:21:53.946Z,101347.97
2023-05-04T14:24:22.059Z,101342.75
2023-05-04T14:26:49.816Z,101340.28
2023-05-04T14:29:17.437Z,101340.16
2023-05-04T14:31:45.271Z,101335.66
2023-05-04T14:34:14.557Z,101333.50
2023-05-04T14:36:42.221Z,101339.50
2023-05-04T14:39:10.057Z,101332.16
2023-05-04T14:41:38.416Z,101334.53
2023-05-04T14:44:06.342Z,101332.16
2023-05-04T14:46:34.076Z,101332.75
2023-05-04T14:49:01.761Z,101327.41
2023-05-04T14:51:33.471Z,101332.78
2023-05-04T14:54:01.973Z,101328.47
2023-05-04T14:56:29.611Z,101329.34
2023-05-04T14:58:57.680Z,101326.97
2023-05-04T15:01:28.042Z,101316.19
2023-05-04T15:03:56.306Z,101313.81
2023-05-04T15:06:24.264Z,101314.16
2023-05-04T15:08:53.437Z,101302.13
2023-05-04T15:11:21.116Z,101302.13
2023-05-04T15:13:48.955Z,101296.41
2023-05-04T15:16:17.707Z,101299.16
2023-05-04T15:18:45.519Z,101299.41
2023-05-04T15:21:13.273Z,101293.91
2023-05-04T15:23:40.995Z,101302.00
2023-05-04T15:26:09.959Z,101295.31
2023-05-04T15:28:37.514Z,101290.41
2023-05-04T15:31:07.274Z,101294.34
2023-05-04T15:33:35.027Z,101295.88
2023-05-04T15:36:08.761Z,101291.50
2023-05-04T15:38:37.079Z,101281.47
2023-05-04T15:41:05.745Z,101283.59
2023-05-04T15:43:35.188Z,101268.34
2023-05-04T15:46:02.990Z,101276.09
2023-05-04T15:48:30.701Z,101282.28
2023-05-04T15:50:58.405Z,101276.22
2023-05-04T15:53:26.446Z,101273.25
2023-05-04T15:55:54.050Z,101263.09
2023-05-04T15:58:21.622Z,101263.09
2023-05-04T16:00:50.628Z,101270.00
2023-05-04T16:03:18.484Z,101262.28
2023-05-04T16:05:46.191Z,101257.47
2023-05-04T16:08:13.801Z,101256.41
2023-05-04T16:10:41.431Z,101256.53
2023-05-04T16:13:11.470Z,101254.75
2023-05-04T16:15:39.812Z,101248.94
2023-05-04T16:18:08.858Z,101255.47
2023-05-04T16:20:36.624Z,101240.56
2023-05-04T16:23:04.178Z,101243.44
2023-05-04T16:25:32.860Z,101235.66
2023-05-04T16:28:00.574Z,101233.41
2023-05-04T16:30:32.645Z,101233.03
2023-05-04T16:33:00.743Z,101232.22
2023-05-04T16:35:30.934Z,101225.69
2023-05-04T16:37:59.061Z,101228.63
2023-05-04T16:40:28.113Z,101222.09
2023-05-04T16:42:55.846Z,101223.38
2023-05-04T16:45:25.554Z,101223.63
2023-05-04T16:47:53.339Z,101216.84
2023-05-04T16:50:20.998Z,101217.66
2023-05-04T16:52:49.970Z,101203.22
2023-05-04T16:55:17.585Z,101205.38
2023-05-04T16:57:45.250Z,101202.03
2023-05-04T17:00:15.688Z,101204.06
2023-05-04T17:02:43.596Z,101194.78
2023-05-04T17:05:11.447Z,101192.00
2023-05-04T17:07:40.080Z,101197.72
2023-05-04T17:10:10.777Z,101195.47
2023-05-04T17:12:38.614Z,101186.25
2023-05-04T17:15:07.292Z,101193.88
2023-05-04T17:17:35.235Z,101197.66
2023-05-04T17:20:03.588Z,101192.19
2023-05-04T17:22:31.258Z,101193.03
2023-05-04T17:24:59.039Z,101186.56
2023-05-04T17:27:28.046Z,101194.44
2023-05-04T17:29:55.880Z,101201.13
2023-05-04T17:32:23.700Z,101204.44
2023-05-04T17:34:51.300Z,101200.19
2023-05-04T17:37:19.048Z,101199.81
2023-05-04T17:39:47.150Z,101207.56
2023-05-04T17:42:15.779Z,101201.72
2023-05-04T17:44:44.817Z,101211.22
2023-05-04T17:47:12.465Z,101209.53
2023-05-04T17:49:40.157Z,101210.41
2023-05-04T17:52:07.830Z,101208.34
2023-05-04T17:54:35.791Z,101212.72
2023-05-04T17:57:03.504Z,101207.81
2023-05-04T17:59:31.375Z,101210.41
2023-05-04T18:02:00.533Z,101220.16
2023-05-04T18:04:31.169Z,101215.66
2023-05-04T18:06:59.063Z,101210.88
2023-05-04T18:09:27.044Z,101206.91
2023-05-04T18:11:54.808Z,101221.06
2023-05-04T18:14:23.474Z,101221.47
2023-05-04T18:16:51.617Z,101227.09
2023-05-04T18:19:24.600Z,101225.03
2023-05-04T18:21:52.472Z,101227.78
2023-05-04T18:24:20.320Z,101233.72
2023-05-04T18:26:48.227Z,101230.69
2023-05-04T18:29:19.498Z,101229.69
2023-05-04T18:34:25.268Z,101228.84
2023-05-04T18:36:52.877Z,101236.31
2023-05-04T18:39:20.530Z,101231.28
2023-05-04T18:41:48.291Z,101234.06
2023-05-04T18:44:16.069Z,101233.47
2023-05-04T18:46:43.807Z,101232.53
2023-05-04T18:49:11.557Z,101236.56
2023-05-04T18:51:42.432Z,101233.81
2023-05-04T18:54:10.603Z,101239.72
2023-05-04T18:56:38.187Z,101248.00
2023-05-04T18:59:12.478Z,101240.47
2023-05-04T19:01:40.242Z,101239.84
2023-05-04T19:04:08.114Z,101248.06
2023-05-04T19:06:35.787Z,101243.47
2023-05-04T19:09:06.584Z,101239.47
2023-05-04T19:11:34.576Z,101245.59
2023-05-04T19:14:03.665Z,101245.22
2023-05-04T19:16:31.375Z,101243.69
2023-05-04T19:18:59.099Z,101245.59
2023-05-04T19:21:27.677Z,101242.25
2023-05-04T19:23:55.728Z,101241.81
2023-05-04T19:26:40.263Z,101249.41
2023-05-04T19:29:10.875Z,101236.63
2023-05-04T19:31:42.475Z,101238.75
2023-05-04T19:34:10.162Z,101242.78
2023-05-04T19:36:38.584Z,101239.16
2023-05-04T19:39:07.706Z,101242.19
2023-05-04T19:41:37.044Z,101240.25
2023-05-04T19:44:10.181Z,101248.84
2023-05-04T19:46:39.322Z,101243.81
2023-05-04T19:49:07.110Z,101239.63
2023-05-04T19:51:34.978Z,101247.81
2023-05-04T19:54:03.361Z,101244.66
2023-05-04T19:56:31.172Z,101240.66
2023-05-04T19:58:58.748Z,101250.06
2023-05-04T20:01:28.090Z,101245.03
2023-05-04T20:03:55.889Z,101242.16
2023-05-04T20:06:23.665Z,101235.91
2023-05-04T20:08:51.378Z,101231.72
2023-05-04T20:11:19.179Z,101236.19
2023-05-04T20:13:47.055Z,101230.31
2023-05-04T20:16:15.783Z,101233.75
2023-05-04T20:18:44.912Z,101235.50
2023-05-04T20:21:12.592Z,101228.16
2023-05-04T20:23:40.505Z,101243.09
2023-05-04T20:26:08.203Z,101229.44
2023-05-04T20:28:35.942Z,101230.97
2023-05-04T20:31:03.742Z,101232.06
2023-05-04T20:33:31.496Z,101238.34
2023-05-04T20:36:01.433Z,101234.56
2023-05-04T20:38:29.222Z,101235.84
2023-05-04T20:40:57.086Z,101222.84
2023-05-04T20:43:25.058Z,101220.31
2023-05-04T20:45:53.355Z,101218.66
2023-05-04T20:48:21.215Z,101221.84
2023-05-04T20:50:50.334Z,101221.28
2023-05-04T20:53:20.647Z,101217.16
2023-05-04T20:55:48.358Z,101217.97
2023-05-04T20:58:19.417Z,101220.47
2023-05-04T21:00:47.230Z,101213.63
2023-05-04T21:03:15.085Z,101213.19
2023-05-04T21:05:42.842Z,101210.50
2023-05-04T21:08:10.516Z,101206.78
2023-05-04T21:10:39.768Z,101201.91
2023-05-04T21:13:07.519Z,101207.78
2023-05-04T21:15:35.385Z,101201.50
2023-05-04T21:18:03.131Z,101206.13
2023-05-04T21:20:30.768Z,101205.53
2023-05-04T21:22:58.470Z,101207.22
2023-05-04T21:25:26.146Z,101218.13
2023-05-04T21:27:57.234Z,101211.41
2023-05-04T21:30:25.968Z,101203.91
2023-05-04T21:32:53.622Z,101209.38
2023-05-04T21:35:22.010Z,101206.44
2023-05-04T21:37:49.758Z,101213.97
2023-05-04T21:40:19.205Z,101207.44
2023-05-04T21:42:46.897Z,101208.53
2023-05-04T21:45:15.843Z,101210.19
2023-05-04T21:47:43.682Z,101208.53
2023-05-04T21:50:11.642Z,101204.38
2023-05-04T21:52:39.383Z,101205.63
2023-05-04T21:55:07.850Z,101201.06
2023-05-04T21:57:35.504Z,101197.09
2023-05-04T22:00:09.040Z,101198.59
2023-05-04T22:02:38.176Z,101199.88
2023-05-04T22:05:06.464Z,101197.75
2023-05-04T22:07:36.003Z,101193.00
2023-05-04T22:10:05.994Z,101200.97
2023-05-04T22:12:36.169Z,101189.00
2023-05-04T22:15:04.057Z,101188.84
2023-05-04T22:17:33.860Z,101191.16
2023-05-04T22:20:03.163Z,101201.41
2023-05-04T22:22:30.861Z,101198.69
2023-05-04T22:25:00.824Z,101194.06
2023-05-04T22:27:28.639Z,101193.25
2023-05-04T22:29:56.304Z,101193.44
2023-05-04T22:32:24.074Z,101191.53
2023-05-04T22:34:51.792Z,101190.53
2023-05-04T22:37:20.777Z,101192.81
2023-05-04T22:39:48.385Z,101195.31
2023-05-04T22:42:16.277Z,101187.59
2023-05-04T22:44:45.265Z,101194.50
2023-05-04T22:47:13.093Z,101193.47
2023-05-04T22:49:41.290Z,101190.75
2023-05-04T22:52:09.016Z,101192.63
2023-05-04T22:54:37.939Z,101186.13
2023-05-04T22:57:05.606Z,101189.06
2023-05-04T22:59:35.661Z,101192.19
2023-05-04T23:02:03.763Z,101183.19
2023-05-04T23:04:32.204Z,101182.59
2023-05-04T23:06:59.822Z,101187.81
2023-05-04T23:09:27.534Z,101185.72
2023-05-04T23:11:56.441Z,101177.75
2023-05-04T23:14:24.138Z,101173.13
2023-05-04T23:16:51.927Z,101173.56
2023-05-04T23:19:19.680Z,101171.28
2023-05-04T23:21:47.379Z,101167.91
2023-05-04T23:24:15.146Z,101173.34
2023-05-04T23:26:43.827Z,101170.63
2023-05-04T23:29:12.843Z,101166.22
2023-05-04T23:31:40.717Z,101169.16
2023-05-04T23:34:08.672Z,101172.09
2023-05-04T23:36:36.350Z,101167.25
2023-05-04T23:39:04.084Z,101173.09
2023-05-04T23:41:31.818Z,101172.28
2023-05-04T23:44:00.029Z,101165.38
2023-05-04T23:46:29.052Z,101166.44
2023-05-04T23:48:56.772Z,101168.53
2023-05-04T23:51:24.476Z,101163.72
2023-05-04T23:53:52.278Z,101156.19
2023-05-04T23:56:20.033Z,101160.13
2023-05-04T23:58:47.806Z,101157.41
